sensor_id;sensor_type;location;lat;lon;timestamp;P1;durP1;ratioP1;P2;durP2;ratioP2
38130;SDS011;23947;51.894;4.622;2023-02-24T00:01:32;25.70;;;3.40;;
38130;SDS011;23947;51.894;4.622;2023-02-24T00:04:02;32.35;;;4.03;;
38130;SDS011;23947;51.894;4.622;2023-02-24T00:06:32;27.98;;;3.97;;
38130;SDS011;23947;51.894;4.622;2023-02-24T00:09:05;21.95;;;3.30;;
38130;SDS011;23947;51.894;4.622;2023-02-24T00:11:40;20.98;;;3.03;;
38130;SDS011;23947;51.894;4.622;2023-02-24T00:14:09;21.50;;;2.55;;
38130;SDS011;23947;51.894;4.622;2023-02-24T00:16:36;28.48;;;3.10;;
38130;SDS011;23947;51.894;4.622;2023-02-24T00:19:02;30.00;;;2.97;;
38130;SDS011;23947;51.894;4.622;2023-02-24T00:21:31;23.85;;;2.53;;
38130;SDS011;23947;51.894;4.622;2023-02-24T00:23:58;22.35;;;2.63;;
38130;SDS011;23947;51.894;4.622;2023-02-24T00:26:24;25.15;;;3.13;;
38130;SDS011;23947;51.894;4.622;2023-02-24T00:28:54;20.23;;;2.85;;
38130;SDS011;23947;51.894;4.622;2023-02-24T00:31:20;26.65;;;2.50;;
38130;SDS011;23947;51.894;4.622;2023-02-24T00:33:48;23.60;;;2.78;;
38130;SDS011;23947;51.894;4.622;2023-02-24T00:36:18;21.90;;;2.28;;
38130;SDS011;23947;51.894;4.622;2023-02-24T00:39:00;27.90;;;2.72;;
38130;SDS011;23947;51.894;4.622;2023-02-24T00:41:33;23.27;;;2.78;;
38130;SDS011;23947;51.894;4.622;2023-02-24T00:44:01;24.23;;;3.22;;
38130;SDS011;23947;51.894;4.622;2023-02-24T00:46:34;18.30;;;2.55;;
38130;SDS011;23947;51.894;4.622;2023-02-24T00:49:03;19.17;;;2.90;;
38130;SDS011;23947;51.894;4.622;2023-02-24T00:51:35;17.95;;;3.05;;
38130;SDS011;23947;51.894;4.622;2023-02-24T00:54:02;21.23;;;2.47;;
38130;SDS011;23947;51.894;4.622;2023-02-24T00:56:28;17.63;;;2.40;;
38130;SDS011;23947;51.894;4.622;2023-02-24T00:58:56;25.98;;;3.90;;
38130;SDS011;23947;51.894;4.622;2023-02-24T01:01:23;22.20;;;3.08;;
38130;SDS011;23947;51.894;4.622;2023-02-24T01:03:57;26.83;;;3.55;;
38130;SDS011;23947;51.894;4.622;2023-02-24T01:06:25;26.88;;;2.95;;
38130;SDS011;23947;51.894;4.622;2023-02-24T01:08:53;28.52;;;2.08;;
38130;SDS011;23947;51.894;4.622;2023-02-24T01:11:21;24.85;;;3.00;;
38130;SDS011;23947;51.894;4.622;2023-02-24T01:14:14;21.92;;;3.42;;
38130;SDS011;23947;51.894;4.622;2023-02-24T01:16:43;18.00;;;2.22;;
38130;SDS011;23947;51.894;4.622;2023-02-24T01:19:14;24.58;;;3.63;;
38130;SDS011;23947;51.894;4.622;2023-02-24T01:21:40;19.10;;;2.72;;
38130;SDS011;23947;51.894;4.622;2023-02-24T01:24:06;29.73;;;3.70;;
38130;SDS011;23947;51.894;4.622;2023-02-24T01:26:34;29.30;;;3.03;;
38130;SDS011;23947;51.894;4.622;2023-02-24T01:29:00;25.83;;;2.40;;
38130;SDS011;23947;51.894;4.622;2023-02-24T01:31:28;15.50;;;2.17;;
38130;SDS011;23947;51.894;4.622;2023-02-24T01:33:53;19.17;;;2.65;;
38130;SDS011;23947;51.894;4.622;2023-02-24T01:36:20;23.58;;;2.53;;
38130;SDS011;23947;51.894;4.622;2023-02-24T01:38:49;15.52;;;2.13;;
38130;SDS011;23947;51.894;4.622;2023-02-24T01:41:20;26.88;;;3.00;;
38130;SDS011;23947;51.894;4.622;2023-02-24T01:46:39;19.20;;;2.95;;
38130;SDS011;23947;51.894;4.622;2023-02-24T01:49:39;23.50;;;2.65;;
38130;SDS011;23947;51.894;4.622;2023-02-24T01:52:10;24.88;;;2.80;;
38130;SDS011;23947;51.894;4.622;2023-02-24T01:57:23;22.23;;;2.47;;
38130;SDS011;23947;51.894;4.622;2023-02-24T01:59:53;16.42;;;2.60;;
38130;SDS011;23947;51.894;4.622;2023-02-24T02:02:25;24.52;;;2.72;;
38130;SDS011;23947;51.894;4.622;2023-02-24T02:05:25;24.40;;;2.95;;
38130;SDS011;23947;51.894;4.622;2023-02-24T02:07:45;19.10;;;2.30;;
38130;SDS011;23947;51.894;4.622;2023-02-24T02:10:10;25.58;;;2.97;;
38130;SDS011;23947;51.894;4.622;2023-02-24T02:12:39;21.58;;;3.25;;
38130;SDS011;23947;51.894;4.622;2023-02-24T02:15:08;20.38;;;2.45;;
38130;SDS011;23947;51.894;4.622;2023-02-24T02:42:46;13.52;;;2.03;;
38130;SDS011;23947;51.894;4.622;2023-02-24T02:45:23;22.10;;;2.78;;
38130;SDS011;23947;51.894;4.622;2023-02-24T02:48:05;17.08;;;2.20;;
38130;SDS011;23947;51.894;4.622;2023-02-24T02:55:55;15.93;;;2.40;;
38130;SDS011;23947;51.894;4.622;2023-02-24T02:58:33;19.33;;;3.13;;
38130;SDS011;23947;51.894;4.622;2023-02-24T03:01:02;16.63;;;3.13;;
38130;SDS011;23947;51.894;4.622;2023-02-24T03:03:32;18.67;;;2.67;;
38130;SDS011;23947;51.894;4.622;2023-02-24T03:06:11;21.83;;;3.28;;
38130;SDS011;23947;51.894;4.622;2023-02-24T03:11:39;18.48;;;3.08;;
38130;SDS011;23947;51.894;4.622;2023-02-24T03:14:14;10.82;;;1.85;;
38130;SDS011;23947;51.894;4.622;2023-02-24T03:16:43;15.52;;;2.83;;
38130;SDS011;23947;51.894;4.622;2023-02-24T03:19:13;14.77;;;1.83;;
38130;SDS011;23947;51.894;4.622;2023-02-24T03:21:42;17.15;;;1.83;;
38130;SDS011;23947;51.894;4.622;2023-02-24T03:24:10;18.13;;;2.33;;
38130;SDS011;23947;51.894;4.622;2023-02-24T03:29:49;15.88;;;2.30;;
38130;SDS011;23947;51.894;4.622;2023-02-24T03:37:28;15.30;;;1.75;;
38130;SDS011;23947;51.894;4.622;2023-02-24T03:39:56;19.27;;;1.83;;
38130;SDS011;23947;51.894;4.622;2023-02-24T03:42:24;12.65;;;1.58;;
38130;SDS011;23947;51.894;4.622;2023-02-24T03:44:53;14.98;;;1.50;;
38130;SDS011;23947;51.894;4.622;2023-02-24T03:47:22;16.17;;;1.42;;
38130;SDS011;23947;51.894;4.622;2023-02-24T03:49:49;16.02;;;1.73;;
38130;SDS011;23947;51.894;4.622;2023-02-24T04:00:47;12.82;;;1.10;;
38130;SDS011;23947;51.894;4.622;2023-02-24T04:03:38;15.63;;;1.63;;
38130;SDS011;23947;51.894;4.622;2023-02-24T04:09:08;15.70;;;1.98;;
38130;SDS011;23947;51.894;4.622;2023-02-24T04:12:08;11.25;;;1.60;;
38130;SDS011;23947;51.894;4.622;2023-02-24T04:17:31;13.55;;;1.55;;
38130;SDS011;23947;51.894;4.622;2023-02-24T04:20:13;21.48;;;2.35;;
38130;SDS011;23947;51.894;4.622;2023-02-24T04:22:45;10.85;;;1.10;;
38130;SDS011;23947;51.894;4.622;2023-02-24T04:25:15;12.18;;;1.40;;
38130;SDS011;23947;51.894;4.622;2023-02-24T04:27:43;13.25;;;2.08;;
38130;SDS011;23947;51.894;4.622;2023-02-24T04:30:11;9.80;;;1.00;;
38130;SDS011;23947;51.894;4.622;2023-02-24T04:32:38;10.82;;;1.35;;
38130;SDS011;23947;51.894;4.622;2023-02-24T04:35:08;17.88;;;1.27;;
38130;SDS011;23947;51.894;4.622;2023-02-24T04:37:36;13.73;;;1.20;;
38130;SDS011;23947;51.894;4.622;2023-02-24T04:40:08;11.48;;;1.20;;
38130;SDS011;23947;51.894;4.622;2023-02-24T04:42:36;7.53;;;0.82;;
38130;SDS011;23947;51.894;4.622;2023-02-24T04:45:10;15.68;;;1.45;;
38130;SDS011;23947;51.894;4.622;2023-02-24T04:47:38;15.32;;;1.30;;
38130;SDS011;23947;51.894;4.622;2023-02-24T04:50:10;13.07;;;1.20;;
38130;SDS011;23947;51.894;4.622;2023-02-24T04:52:46;12.95;;;1.38;;
38130;SDS011;23947;51.894;4.622;2023-02-24T04:55:50;12.68;;;1.30;;
38130;SDS011;23947;51.894;4.622;2023-02-24T04:58:19;16.23;;;2.13;;
38130;SDS011;23947;51.894;4.622;2023-02-24T05:00:50;17.35;;;1.30;;
38130;SDS011;23947;51.894;4.622;2023-02-24T05:03:20;9.20;;;0.70;;
38130;SDS011;23947;51.894;4.622;2023-02-24T05:05:48;9.57;;;0.88;;
38130;SDS011;23947;51.894;4.622;2023-02-24T05:08:16;11.73;;;0.80;;
38130;SDS011;23947;51.894;4.622;2023-02-24T05:10:43;15.63;;;1.20;;
38130;SDS011;23947;51.894;4.622;2023-02-24T05:13:14;6.97;;;0.50;;
38130;SDS011;23947;51.894;4.622;2023-02-24T05:15:42;14.98;;;0.60;;
38130;SDS011;23947;51.894;4.622;2023-02-24T05:18:10;10.38;;;0.68;;
38130;SDS011;23947;51.894;4.622;2023-02-24T05:20:45;14.68;;;0.85;;
38130;SDS011;23947;51.894;4.622;2023-02-24T05:23:32;6.93;;;0.55;;
38130;SDS011;23947;51.894;4.622;2023-02-24T05:26:00;8.47;;;0.53;;
38130;SDS011;23947;51.894;4.622;2023-02-24T05:28:26;13.65;;;0.98;;
38130;SDS011;23947;51.894;4.622;2023-02-24T05:31:02;8.90;;;1.20;;
38130;SDS011;23947;51.894;4.622;2023-02-24T05:33:32;6.53;;;0.80;;
38130;SDS011;23947;51.894;4.622;2023-02-24T05:36:07;7.13;;;0.65;;
38130;SDS011;23947;51.894;4.622;2023-02-24T05:38:35;10.13;;;0.43;;
38130;SDS011;23947;51.894;4.622;2023-02-24T05:41:09;8.52;;;0.50;;
38130;SDS011;23947;51.894;4.622;2023-02-24T05:43:43;15.23;;;1.35;;
38130;SDS011;23947;51.894;4.622;2023-02-24T05:46:16;12.18;;;0.65;;
38130;SDS011;23947;51.894;4.622;2023-02-24T05:48:43;12.07;;;1.00;;
38130;SDS011;23947;51.894;4.622;2023-02-24T05:51:09;14.32;;;0.55;;
38130;SDS011;23947;51.894;4.622;2023-02-24T05:53:37;10.07;;;0.80;;
38130;SDS011;23947;51.894;4.622;2023-02-24T05:56:06;15.45;;;1.25;;
38130;SDS011;23947;51.894;4.622;2023-02-24T05:58:32;15.40;;;0.73;;
38130;SDS011;23947;51.894;4.622;2023-02-24T06:00:58;16.58;;;0.80;;
38130;SDS011;23947;51.894;4.622;2023-02-24T06:03:30;10.65;;;0.80;;
38130;SDS011;23947;51.894;4.622;2023-02-24T06:05:59;10.95;;;0.80;;
38130;SDS011;23947;51.894;4.622;2023-02-24T06:08:33;7.47;;;0.73;;
38130;SDS011;23947;51.894;4.622;2023-02-24T06:11:06;7.97;;;0.70;;
38130;SDS011;23947;51.894;4.622;2023-02-24T06:13:33;11.55;;;0.40;;
38130;SDS011;23947;51.894;4.622;2023-02-24T06:15:58;8.82;;;0.60;;
38130;SDS011;23947;51.894;4.622;2023-02-24T06:18:24;13.50;;;0.77;;
38130;SDS011;23947;51.894;4.622;2023-02-24T06:20:50;11.25;;;0.75;;
38130;SDS011;23947;51.894;4.622;2023-02-24T06:23:15;8.27;;;0.70;;
38130;SDS011;23947;51.894;4.622;2023-02-24T06:25:42;15.35;;;0.82;;
38130;SDS011;23947;51.894;4.622;2023-02-24T06:28:08;10.13;;;1.20;;
38130;SDS011;23947;51.894;4.622;2023-02-24T06:30:34;8.85;;;0.82;;
38130;SDS011;23947;51.894;4.622;2023-02-24T06:33:01;8.50;;;0.60;;
38130;SDS011;23947;51.894;4.622;2023-02-24T06:35:29;10.55;;;0.63;;
38130;SDS011;23947;51.894;4.622;2023-02-24T06:37:57;11.32;;;0.90;;
38130;SDS011;23947;51.894;4.622;2023-02-24T06:40:22;12.63;;;0.77;;
38130;SDS011;23947;51.894;4.622;2023-02-24T06:42:51;18.20;;;1.25;;
38130;SDS011;23947;51.894;4.622;2023-02-24T06:45:21;8.43;;;0.70;;
38130;SDS011;23947;51.894;4.622;2023-02-24T06:47:48;7.90;;;0.80;;
38130;SDS011;23947;51.894;4.622;2023-02-24T06:50:15;15.52;;;1.20;;
38130;SDS011;23947;51.894;4.622;2023-02-24T06:52:45;11.20;;;0.90;;
38130;SDS011;23947;51.894;4.622;2023-02-24T06:55:13;10.10;;;0.80;;
38130;SDS011;23947;51.894;4.622;2023-02-24T06:57:54;12.45;;;0.73;;
38130;SDS011;23947;51.894;4.622;2023-02-24T07:00:29;11.35;;;1.02;;
38130;SDS011;23947;51.894;4.622;2023-02-24T07:03:06;8.00;;;0.73;;
38130;SDS011;23947;51.894;4.622;2023-02-24T07:05:44;11.40;;;1.55;;
38130;SDS011;23947;51.894;4.622;2023-02-24T07:08:17;10.15;;;0.80;;
38130;SDS011;23947;51.894;4.622;2023-02-24T07:10:50;16.73;;;1.55;;
38130;SDS011;23947;51.894;4.622;2023-02-24T07:13:16;9.02;;;0.73;;
38130;SDS011;23947;51.894;4.622;2023-02-24T07:15:42;16.25;;;1.17;;
38130;SDS011;23947;51.894;4.622;2023-02-24T07:18:13;10.68;;;0.70;;
38130;SDS011;23947;51.894;4.622;2023-02-24T07:20:39;14.10;;;1.33;;
38130;SDS011;23947;51.894;4.622;2023-02-24T07:23:09;10.50;;;1.10;;
38130;SDS011;23947;51.894;4.622;2023-02-24T07:25:35;12.38;;;1.17;;
38130;SDS011;23947;51.894;4.622;2023-02-24T07:28:03;10.90;;;1.33;;
38130;SDS011;23947;51.894;4.622;2023-02-24T07:30:31;12.50;;;2.10;;
38130;SDS011;23947;51.894;4.622;2023-02-24T07:32:57;21.83;;;5.25;;
38130;SDS011;23947;51.894;4.622;2023-02-24T07:35:24;12.05;;;1.73;;
38130;SDS011;23947;51.894;4.622;2023-02-24T07:37:50;11.77;;;1.65;;
38130;SDS011;23947;51.894;4.622;2023-02-24T07:40:16;15.13;;;1.90;;
38130;SDS011;23947;51.894;4.622;2023-02-24T07:42:46;12.30;;;1.50;;
38130;SDS011;23947;51.894;4.622;2023-02-24T07:45:12;11.73;;;1.63;;
38130;SDS011;23947;51.894;4.622;2023-02-24T07:47:38;20.50;;;2.30;;
38130;SDS011;23947;51.894;4.622;2023-02-24T07:50:05;14.75;;;1.92;;
38130;SDS011;23947;51.894;4.622;2023-02-24T07:52:37;11.35;;;2.08;;
38130;SDS011;23947;51.894;4.622;2023-02-24T07:55:04;14.55;;;1.30;;
38130;SDS011;23947;51.894;4.622;2023-02-24T07:57:31;14.40;;;1.55;;
38130;SDS011;23947;51.894;4.622;2023-02-24T07:59:57;14.77;;;1.85;;
38130;SDS011;23947;51.894;4.622;2023-02-24T08:02:24;13.15;;;2.30;;
38130;SDS011;23947;51.894;4.622;2023-02-24T08:04:50;18.77;;;1.77;;
38130;SDS011;23947;51.894;4.622;2023-02-24T08:07:17;17.90;;;2.22;;
38130;SDS011;23947;51.894;4.622;2023-02-24T08:09:48;21.45;;;1.63;;
38130;SDS011;23947;51.894;4.622;2023-02-24T08:12:32;10.20;;;0.75;;
38130;SDS011;23947;51.894;4.622;2023-02-24T08:14:59;12.30;;;1.35;;
38130;SDS011;23947;51.894;4.622;2023-02-24T08:17:32;13.65;;;1.30;;
38130;SDS011;23947;51.894;4.622;2023-02-24T08:19:58;14.80;;;1.83;;
38130;SDS011;23947;51.894;4.622;2023-02-24T08:22:39;11.68;;;1.00;;
38130;SDS011;23947;51.894;4.622;2023-02-24T08:25:09;15.23;;;1.55;;
38130;SDS011;23947;51.894;4.622;2023-02-24T08:27:42;7.47;;;1.00;;
38130;SDS011;23947;51.894;4.622;2023-02-24T08:30:08;17.55;;;1.75;;
38130;SDS011;23947;51.894;4.622;2023-02-24T08:32:47;14.75;;;2.00;;
38130;SDS011;23947;51.894;4.622;2023-02-24T08:35:21;15.55;;;2.10;;
38130;SDS011;23947;51.894;4.622;2023-02-24T08:40:23;12.98;;;1.42;;
38130;SDS011;23947;51.894;4.622;2023-02-24T08:43:05;15.18;;;1.65;;
38130;SDS011;23947;51.894;4.622;2023-02-24T08:45:42;13.85;;;1.42;;
38130;SDS011;23947;51.894;4.622;2023-02-24T08:48:19;17.40;;;2.45;;
38130;SDS011;23947;51.894;4.622;2023-02-24T08:50:57;9.25;;;1.08;;
38130;SDS011;23947;51.894;4.622;2023-02-24T08:53:25;11.90;;;1.52;;
38130;SDS011;23947;51.894;4.622;2023-02-24T08:55:55;13.90;;;1.50;;
38130;SDS011;23947;51.894;4.622;2023-02-24T08:58:23;15.40;;;1.77;;
38130;SDS011;23947;51.894;4.622;2023-02-24T09:00:55;18.50;;;1.63;;
38130;SDS011;23947;51.894;4.622;2023-02-24T09:03:26;20.52;;;1.70;;
38130;SDS011;23947;51.894;4.622;2023-02-24T09:06:03;11.80;;;1.70;;
38130;SDS011;23947;51.894;4.622;2023-02-24T09:08:33;14.63;;;1.60;;
38130;SDS011;23947;51.894;4.622;2023-02-24T09:11:04;9.93;;;1.30;;
38130;SDS011;23947;51.894;4.622;2023-02-24T09:13:34;14.27;;;1.60;;
38130;SDS011;23947;51.894;4.622;2023-02-24T09:16:07;16.63;;;1.77;;
38130;SDS011;23947;51.894;4.622;2023-02-24T09:18:40;20.55;;;1.98;;
38130;SDS011;23947;51.894;4.622;2023-02-24T09:21:10;12.77;;;1.30;;
38130;SDS011;23947;51.894;4.622;2023-02-24T09:24:00;13.63;;;1.40;;
38130;SDS011;23947;51.894;4.622;2023-02-24T09:26:34;15.70;;;1.48;;
38130;SDS011;23947;51.894;4.622;2023-02-24T09:29:11;14.90;;;1.70;;
38130;SDS011;23947;51.894;4.622;2023-02-24T09:31:57;23.77;;;2.03;;
38130;SDS011;23947;51.894;4.622;2023-02-24T09:34:31;15.25;;;1.25;;
38130;SDS011;23947;51.894;4.622;2023-02-24T09:37:02;16.67;;;1.38;;
38130;SDS011;23947;51.894;4.622;2023-02-24T09:39:31;23.83;;;2.33;;
38130;SDS011;23947;51.894;4.622;2023-02-24T09:42:29;12.95;;;1.20;;
38130;SDS011;23947;51.894;4.622;2023-02-24T09:45:11;15.43;;;1.30;;
38130;SDS011;23947;51.894;4.622;2023-02-24T09:47:57;16.65;;;1.65;;
38130;SDS011;23947;51.894;4.622;2023-02-24T09:50:34;17.42;;;1.48;;
38130;SDS011;23947;51.894;4.622;2023-02-24T09:53:13;14.57;;;1.67;;
38130;SDS011;23947;51.894;4.622;2023-02-24T10:07:03;15.35;;;2.03;;
38130;SDS011;23947;51.894;4.622;2023-02-24T10:09:36;17.60;;;2.05;;
38130;SDS011;23947;51.894;4.622;2023-02-24T10:14:48;20.48;;;2.47;;
38130;SDS011;23947;51.894;4.622;2023-02-24T10:17:43;22.70;;;2.25;;
38130;SDS011;23947;51.894;4.622;2023-02-24T10:20:37;15.75;;;1.83;;
38130;SDS011;23947;51.894;4.622;2023-02-24T10:26:22;17.63;;;2.45;;
38130;SDS011;23947;51.894;4.622;2023-02-24T10:29:01;13.65;;;2.38;;
38130;SDS011;23947;51.894;4.622;2023-02-24T10:31:44;18.17;;;2.63;;
38130;SDS011;23947;51.894;4.622;2023-02-24T10:34:15;15.25;;;3.38;;
38130;SDS011;23947;51.894;4.622;2023-02-24T10:36:44;17.30;;;3.80;;
38130;SDS011;23947;51.894;4.622;2023-02-24T10:39:18;17.88;;;4.15;;
38130;SDS011;23947;51.894;4.622;2023-02-24T10:41:56;16.98;;;4.80;;
38130;SDS011;23947;51.894;4.622;2023-02-24T10:44:27;20.33;;;4.82;;
38130;SDS011;23947;51.894;4.622;2023-02-24T10:47:05;19.45;;;6.22;;
38130;SDS011;23947;51.894;4.622;2023-02-24T10:49:50;18.10;;;6.35;;
38130;SDS011;23947;51.894;4.622;2023-02-24T10:52:29;20.23;;;6.18;;
38130;SDS011;23947;51.894;4.622;2023-02-24T10:55:08;16.58;;;6.03;;
38130;SDS011;23947;51.894;4.622;2023-02-24T10:58:02;17.48;;;6.43;;
38130;SDS011;23947;51.894;4.622;2023-02-24T11:00:40;17.73;;;8.10;;
38130;SDS011;23947;51.894;4.622;2023-02-24T11:03:44;18.45;;;7.47;;
38130;SDS011;23947;51.894;4.622;2023-02-24T11:06:25;17.70;;;8.15;;
38130;SDS011;23947;51.894;4.622;2023-02-24T11:09:04;17.65;;;8.07;;
38130;SDS011;23947;51.894;4.622;2023-02-24T11:11:43;18.48;;;9.00;;
38130;SDS011;23947;51.894;4.622;2023-02-24T11:14:30;15.68;;;8.45;;
38130;SDS011;23947;51.894;4.622;2023-02-24T11:17:22;16.10;;;8.93;;
38130;SDS011;23947;51.894;4.622;2023-02-24T11:19:58;20.27;;;10.00;;
38130;SDS011;23947;51.894;4.622;2023-02-24T11:22:35;17.52;;;9.43;;
38130;SDS011;23947;51.894;4.622;2023-02-24T11:25:25;14.73;;;9.82;;
38130;SDS011;23947;51.894;4.622;2023-02-24T11:27:57;17.50;;;8.75;;
38130;SDS011;23947;51.894;4.622;2023-02-24T11:33:28;16.30;;;10.27;;
38130;SDS011;23947;51.894;4.622;2023-02-24T11:36:11;18.23;;;10.80;;
38130;SDS011;23947;51.894;4.622;2023-02-24T11:39:09;17.13;;;9.23;;
38130;SDS011;23947;51.894;4.622;2023-02-24T11:41:54;21.80;;;10.13;;
38130;SDS011;23947;51.894;4.622;2023-02-24T11:47:15;17.05;;;10.25;;
38130;SDS011;23947;51.894;4.622;2023-02-24T11:49:50;15.65;;;9.85;;
38130;SDS011;23947;51.894;4.622;2023-02-24T11:52:25;17.58;;;10.68;;
38130;SDS011;23947;51.894;4.622;2023-02-24T11:54:56;16.85;;;9.95;;
38130;SDS011;23947;51.894;4.622;2023-02-24T12:00:24;14.35;;;8.95;;
38130;SDS011;23947;51.894;4.622;2023-02-24T12:02:59;15.95;;;9.60;;
38130;SDS011;23947;51.894;4.622;2023-02-24T12:09:06;18.52;;;8.77;;
38130;SDS011;23947;51.894;4.622;2023-02-24T12:11:46;25.38;;;10.45;;
38130;SDS011;23947;51.894;4.622;2023-02-24T12:17:13;26.40;;;10.93;;
38130;SDS011;23947;51.894;4.622;2023-02-24T12:20:01;27.38;;;10.63;;
38130;SDS011;23947;51.894;4.622;2023-02-24T12:25:44;26.80;;;10.77;;
38130;SDS011;23947;51.894;4.622;2023-02-24T12:28:37;37.35;;;9.23;;
38130;SDS011;23947;51.894;4.622;2023-02-24T12:31:35;27.60;;;9.77;;
38130;SDS011;23947;51.894;4.622;2023-02-24T12:37:05;30.40;;;9.33;;
38130;SDS011;23947;51.894;4.622;2023-02-24T12:39:48;38.67;;;9.90;;
38130;SDS011;23947;51.894;4.622;2023-02-24T12:42:26;30.75;;;9.68;;
38130;SDS011;23947;51.894;4.622;2023-02-24T12:47:36;36.70;;;9.13;;
38130;SDS011;23947;51.894;4.622;2023-02-24T12:50:40;34.22;;;8.50;;
38130;SDS011;23947;51.894;4.622;2023-02-24T12:58:38;32.65;;;6.78;;
38130;SDS011;23947;51.894;4.622;2023-02-24T13:01:40;31.67;;;5.45;;
38130;SDS011;23947;51.894;4.622;2023-02-24T13:15:53;24.52;;;4.20;;
38130;SDS011;23947;51.894;4.622;2023-02-24T13:18:23;39.38;;;3.17;;
38130;SDS011;23947;51.894;4.622;2023-02-24T13:21:05;24.45;;;2.60;;
38130;SDS011;23947;51.894;4.622;2023-02-24T13:23:50;39.00;;;4.30;;
38130;SDS011;23947;51.894;4.622;2023-02-24T13:26:23;34.90;;;3.45;;
38130;SDS011;23947;51.894;4.622;2023-02-24T13:31:24;34.35;;;3.00;;
38130;SDS011;23947;51.894;4.622;2023-02-24T13:33:50;33.72;;;3.15;;
38130;SDS011;23947;51.894;4.622;2023-02-24T13:36:20;30.92;;;4.22;;
38130;SDS011;23947;51.894;4.622;2023-02-24T13:39:18;39.42;;;3.67;;
38130;SDS011;23947;51.894;4.622;2023-02-24T13:41:47;28.20;;;4.00;;
38130;SDS011;23947;51.894;4.622;2023-02-24T13:44:23;31.38;;;4.07;;
38130;SDS011;23947;51.894;4.622;2023-02-24T13:52:14;31.48;;;2.78;;
38130;SDS011;23947;51.894;4.622;2023-02-24T13:54:57;35.20;;;3.30;;
38130;SDS011;23947;51.894;4.622;2023-02-24T13:57:55;29.67;;;2.97;;
38130;SDS011;23947;51.894;4.622;2023-02-24T14:03:26;36.13;;;2.92;;
38130;SDS011;23947;51.894;4.622;2023-02-24T14:05:52;26.40;;;2.25;;
38130;SDS011;23947;51.894;4.622;2023-02-24T14:08:22;25.65;;;2.58;;
38130;SDS011;23947;51.894;4.622;2023-02-24T14:11:09;34.00;;;3.60;;
38130;SDS011;23947;51.894;4.622;2023-02-24T14:13:38;28.70;;;3.47;;
38130;SDS011;23947;51.894;4.622;2023-02-24T14:16:08;30.75;;;2.47;;
38130;SDS011;23947;51.894;4.622;2023-02-24T14:18:35;29.40;;;2.67;;
38130;SDS011;23947;51.894;4.622;2023-02-24T14:21:01;20.52;;;1.90;;
38130;SDS011;23947;51.894;4.622;2023-02-24T14:23:31;18.73;;;2.47;;
38130;SDS011;23947;51.894;4.622;2023-02-24T14:25:59;18.25;;;1.40;;
38130;SDS011;23947;51.894;4.622;2023-02-24T14:28:36;22.03;;;1.97;;
38130;SDS011;23947;51.894;4.622;2023-02-24T14:31:07;20.92;;;2.20;;
38130;SDS011;23947;51.894;4.622;2023-02-24T14:33:35;19.90;;;1.45;;
38130;SDS011;23947;51.894;4.622;2023-02-24T14:36:02;21.90;;;2.80;;
38130;SDS011;23947;51.894;4.622;2023-02-24T14:38:31;14.40;;;1.40;;
38130;SDS011;23947;51.894;4.622;2023-02-24T14:40:58;19.38;;;2.10;;
38130;SDS011;23947;51.894;4.622;2023-02-24T14:43:24;16.02;;;1.67;;
38130;SDS011;23947;51.894;4.622;2023-02-24T14:45:50;19.80;;;1.95;;
38130;SDS011;23947;51.894;4.622;2023-02-24T14:50:50;22.48;;;2.65;;
38130;SDS011;23947;51.894;4.622;2023-02-24T14:53:18;15.30;;;1.90;;
38130;SDS011;23947;51.894;4.622;2023-02-24T14:55:47;26.75;;;3.05;;
38130;SDS011;23947;51.894;4.622;2023-02-24T15:00:52;28.38;;;3.47;;
38130;SDS011;23947;51.894;4.622;2023-02-24T15:03:24;18.67;;;2.03;;
38130;SDS011;23947;51.894;4.622;2023-02-24T15:05:54;16.65;;;1.95;;
38130;SDS011;23947;51.894;4.622;2023-02-24T15:08:29;17.13;;;1.50;;
38130;SDS011;23947;51.894;4.622;2023-02-24T15:10:59;20.83;;;1.20;;
38130;SDS011;23947;51.894;4.622;2023-02-24T15:13:38;14.02;;;0.95;;
38130;SDS011;23947;51.894;4.622;2023-02-24T15:18:57;10.32;;;0.63;;
38130;SDS011;23947;51.894;4.622;2023-02-24T15:24:02;13.80;;;1.70;;
38130;SDS011;23947;51.894;4.622;2023-02-24T15:26:40;14.07;;;1.60;;
38130;SDS011;23947;51.894;4.622;2023-02-24T15:29:17;12.70;;;1.65;;
38130;SDS011;23947;51.894;4.622;2023-02-24T15:31:46;17.10;;;1.00;;
38130;SDS011;23947;51.894;4.622;2023-02-24T15:34:15;25.30;;;6.85;;
38130;SDS011;23947;51.894;4.622;2023-02-24T15:36:46;14.63;;;1.80;;
38130;SDS011;23947;51.894;4.622;2023-02-24T15:39:17;18.25;;;2.40;;
38130;SDS011;23947;51.894;4.622;2023-02-24T15:41:47;25.42;;;4.20;;
38130;SDS011;23947;51.894;4.622;2023-02-24T15:47:20;22.70;;;3.50;;
38130;SDS011;23947;51.894;4.622;2023-02-24T15:50:13;24.52;;;4.93;;
38130;SDS011;23947;51.894;4.622;2023-02-24T15:52:39;20.30;;;5.00;;
38130;SDS011;23947;51.894;4.622;2023-02-24T15:55:05;14.77;;;2.15;;
38130;SDS011;23947;51.894;4.622;2023-02-24T15:57:31;16.02;;;2.35;;
38130;SDS011;23947;51.894;4.622;2023-02-24T15:59:57;9.40;;;0.50;;
38130;SDS011;23947;51.894;4.622;2023-02-24T16:02:23;10.30;;;0.57;;
38130;SDS011;23947;51.894;4.622;2023-02-24T16:04:50;13.98;;;0.68;;
38130;SDS011;23947;51.894;4.622;2023-02-24T16:07:23;7.95;;;0.43;;
38130;SDS011;23947;51.894;4.622;2023-02-24T16:09:52;12.98;;;0.93;;
38130;SDS011;23947;51.894;4.622;2023-02-24T16:12:20;8.18;;;1.00;;
38130;SDS011;23947;51.894;4.622;2023-02-24T16:15:10;17.05;;;0.60;;
38130;SDS011;23947;51.894;4.622;2023-02-24T16:17:42;9.38;;;0.80;;
38130;SDS011;23947;51.894;4.622;2023-02-24T16:20:12;12.23;;;0.80;;
38130;SDS011;23947;51.894;4.622;2023-02-24T16:22:39;10.20;;;0.82;;
38130;SDS011;23947;51.894;4.622;2023-02-24T16:25:05;17.27;;;1.85;;
38130;SDS011;23947;51.894;4.622;2023-02-24T16:27:31;15.00;;;0.90;;
38130;SDS011;23947;51.894;4.622;2023-02-24T16:29:58;9.40;;;0.60;;
38130;SDS011;23947;51.894;4.622;2023-02-24T16:32:24;14.73;;;1.45;;
38130;SDS011;23947;51.894;4.622;2023-02-24T16:34:52;14.50;;;1.15;;
38130;SDS011;23947;51.894;4.622;2023-02-24T16:37:19;18.85;;;1.25;;
38130;SDS011;23947;51.894;4.622;2023-02-24T16:39:47;22.88;;;1.50;;
38130;SDS011;23947;51.894;4.622;2023-02-24T16:42:13;13.25;;;1.00;;
38130;SDS011;23947;51.894;4.622;2023-02-24T16:47:12;20.30;;;1.90;;
38130;SDS011;23947;51.894;4.622;2023-02-24T16:49:42;11.50;;;1.60;;
38130;SDS011;23947;51.894;4.622;2023-02-24T16:52:09;17.00;;;1.73;;
38130;SDS011;23947;51.894;4.622;2023-02-24T16:54:43;18.80;;;1.73;;
38130;SDS011;23947;51.894;4.622;2023-02-24T16:57:09;19.85;;;2.97;;
38130;SDS011;23947;51.894;4.622;2023-02-24T16:59:34;19.70;;;1.77;;
38130;SDS011;23947;51.894;4.622;2023-02-24T17:02:00;16.85;;;4.10;;
38130;SDS011;23947;51.894;4.622;2023-02-24T17:04:26;13.38;;;1.13;;
38130;SDS011;23947;51.894;4.622;2023-02-24T17:06:52;20.80;;;3.10;;
38130;SDS011;23947;51.894;4.622;2023-02-24T17:09:18;12.18;;;1.23;;
38130;SDS011;23947;51.894;4.622;2023-02-24T17:11:43;14.63;;;2.80;;
38130;SDS011;23947;51.894;4.622;2023-02-24T17:14:16;10.85;;;1.20;;
38130;SDS011;23947;51.894;4.622;2023-02-24T17:16:44;18.23;;;2.08;;
38130;SDS011;23947;51.894;4.622;2023-02-24T17:19:10;14.43;;;0.80;;
38130;SDS011;23947;51.894;4.622;2023-02-24T17:21:36;11.48;;;2.22;;
38130;SDS011;23947;51.894;4.622;2023-02-24T17:24:05;22.00;;;3.08;;
38130;SDS011;23947;51.894;4.622;2023-02-24T17:26:32;21.92;;;4.82;;
38130;SDS011;23947;51.894;4.622;2023-02-24T17:28:58;24.48;;;6.72;;
38130;SDS011;23947;51.894;4.622;2023-02-24T17:31:23;35.03;;;7.03;;
38130;SDS011;23947;51.894;4.622;2023-02-24T17:33:52;36.73;;;10.03;;
38130;SDS011;23947;51.894;4.622;2023-02-24T17:36:17;26.48;;;5.25;;